sensor_id;sensor_type;location;lat;lon;timestamp;P1;durP1;ratioP1;P2;durP2;ratioP2
7719;SDS011;3902;49.474;8.616;2023-06-14T00:01:16;4.50;;;4.00;;
7719;SDS011;3902;49.474;8.616;2023-06-14T00:03:42;4.07;;;3.73;;
7719;SDS011;3902;49.474;8.616;2023-06-14T00:06:07;4.33;;;3.93;;
7719;SDS011;3902;49.474;8.616;2023-06-14T00:08:33;4.10;;;3.80;;
7719;SDS011;3902;49.474;8.616;2023-06-14T00:10:58;4.37;;;3.97;;
7719;SDS011;3902;49.474;8.616;2023-06-14T00:13:24;4.60;;;3.90;;
7719;SDS011;3902;49.474;8.616;2023-06-14T00:15:50;4.20;;;3.90;;
7719;SDS011;3902;49.474;8.616;2023-06-14T00:18:19;4.57;;;3.50;;
7719;SDS011;3902;49.474;8.616;2023-06-14T00:20:49;4.60;;;3.80;;
7719;SDS011;3902;49.474;8.616;2023-06-14T00:23:15;5.90;;;4.10;;
7719;SDS011;3902;49.474;8.616;2023-06-14T00:25:41;4.43;;;4.03;;
7719;SDS011;3902;49.474;8.616;2023-06-14T00:28:06;4.60;;;4.20;;
7719;SDS011;3902;49.474;8.616;2023-06-14T00:30:32;5.03;;;4.37;;
7719;SDS011;3902;49.474;8.616;2023-06-14T00:32:57;4.70;;;3.83;;
7719;SDS011;3902;49.474;8.616;2023-06-14T00:35:23;5.80;;;4.30;;
7719;SDS011;3902;49.474;8.616;2023-06-14T00:37:50;4.70;;;4.30;;
7719;SDS011;3902;49.474;8.616;2023-06-14T00:40:15;5.00;;;3.77;;
7719;SDS011;3902;49.474;8.616;2023-06-14T00:42:41;3.93;;;3.63;;
7719;SDS011;3902;49.474;8.616;2023-06-14T00:45:06;4.07;;;3.50;;
7719;SDS011;3902;49.474;8.616;2023-06-14T00:47:32;4.40;;;4.00;;
7719;SDS011;3902;49.474;8.616;2023-06-14T00:50:00;4.00;;;3.70;;
7719;SDS011;3902;49.474;8.616;2023-06-14T00:52:26;4.53;;;3.90;;
7719;SDS011;3902;49.474;8.616;2023-06-14T00:54:52;5.33;;;4.70;;
7719;SDS011;3902;49.474;8.616;2023-06-14T00:57:18;5.73;;;4.03;;
7719;SDS011;3902;49.474;8.616;2023-06-14T00:59:46;4.23;;;3.93;;
7719;SDS011;3902;49.474;8.616;2023-06-14T01:02:13;4.40;;;4.00;;
7719;SDS011;3902;49.474;8.616;2023-06-14T01:04:40;4.20;;;3.80;;
7719;SDS011;3902;49.474;8.616;2023-06-14T01:15:38;4.63;;;4.27;;
7719;SDS011;3902;49.474;8.616;2023-06-14T01:18:05;4.10;;;3.80;;
7719;SDS011;3902;49.474;8.616;2023-06-14T01:20:32;4.63;;;4.23;;
7719;SDS011;3902;49.474;8.616;2023-06-14T01:23:01;6.40;;;4.20;;
7719;SDS011;3902;49.474;8.616;2023-06-14T01:25:27;5.23;;;3.90;;
7719;SDS011;3902;49.474;8.616;2023-06-14T01:27:53;4.20;;;3.80;;
7719;SDS011;3902;49.474;8.616;2023-06-14T01:30:23;5.70;;;4.07;;
7719;SDS011;3902;49.474;8.616;2023-06-14T01:32:53;4.40;;;4.00;;
7719;SDS011;3902;49.474;8.616;2023-06-14T01:35:19;5.20;;;4.70;;
7719;SDS011;3902;49.474;8.616;2023-06-14T01:37:47;3.73;;;3.40;;
7719;SDS011;3902;49.474;8.616;2023-06-14T01:40:13;4.90;;;4.40;;
7719;SDS011;3902;49.474;8.616;2023-06-14T01:42:40;8.43;;;4.77;;
7719;SDS011;3902;49.474;8.616;2023-06-14T01:45:06;5.30;;;4.47;;
7719;SDS011;3902;49.474;8.616;2023-06-14T01:47:33;4.87;;;4.40;;
7719;SDS011;3902;49.474;8.616;2023-06-14T01:50:01;7.13;;;4.40;;
7719;SDS011;3902;49.474;8.616;2023-06-14T01:52:29;4.03;;;3.73;;
7719;SDS011;3902;49.474;8.616;2023-06-14T01:54:55;4.30;;;3.90;;
7719;SDS011;3902;49.474;8.616;2023-06-14T01:57:21;9.20;;;4.40;;
7719;SDS011;3902;49.474;8.616;2023-06-14T01:59:48;5.30;;;4.60;;
7719;SDS011;3902;49.474;8.616;2023-06-14T02:02:14;4.43;;;4.03;;
7719;SDS011;3902;49.474;8.616;2023-06-14T02:04:40;4.90;;;4.50;;
7719;SDS011;3902;49.474;8.616;2023-06-14T02:07:06;4.40;;;3.97;;
7719;SDS011;3902;49.474;8.616;2023-06-14T02:09:32;4.57;;;4.17;;
7719;SDS011;3902;49.474;8.616;2023-06-14T02:11:58;4.33;;;3.93;;
7719;SDS011;3902;49.474;8.616;2023-06-14T02:14:24;5.17;;;4.30;;
7719;SDS011;3902;49.474;8.616;2023-06-14T02:16:50;5.47;;;4.30;;
7719;SDS011;3902;49.474;8.616;2023-06-14T02:19:16;5.17;;;4.67;;
7719;SDS011;3902;49.474;8.616;2023-06-14T02:21:42;4.77;;;4.13;;
7719;SDS011;3902;49.474;8.616;2023-06-14T02:24:08;4.57;;;4.10;;
7719;SDS011;3902;49.474;8.616;2023-06-14T02:26:33;4.20;;;3.80;;
7719;SDS011;3902;49.474;8.616;2023-06-14T02:28:59;4.70;;;4.30;;
7719;SDS011;3902;49.474;8.616;2023-06-14T02:31:24;4.10;;;3.73;;
7719;SDS011;3902;49.474;8.616;2023-06-14T02:33:51;5.43;;;4.93;;
7719;SDS011;3902;49.474;8.616;2023-06-14T02:36:16;4.70;;;4.30;;
7719;SDS011;3902;49.474;8.616;2023-06-14T02:38:42;4.50;;;4.20;;
7719;SDS011;3902;49.474;8.616;2023-06-14T02:41:07;5.10;;;4.13;;
7719;SDS011;3902;49.474;8.616;2023-06-14T02:43:33;5.87;;;4.33;;
7719;SDS011;3902;49.474;8.616;2023-06-14T02:45:58;5.47;;;4.50;;
7719;SDS011;3902;49.474;8.616;2023-06-14T02:48:24;4.50;;;4.10;;
7719;SDS011;3902;49.474;8.616;2023-06-14T02:50:49;5.10;;;3.80;;
7719;SDS011;3902;49.474;8.616;2023-06-14T02:53:16;10.53;;;4.80;;
7719;SDS011;3902;49.474;8.616;2023-06-14T02:55:42;5.50;;;4.60;;
7719;SDS011;3902;49.474;8.616;2023-06-14T02:58:07;5.23;;;3.93;;
7719;SDS011;3902;49.474;8.616;2023-06-14T03:00:33;6.67;;;4.27;;
7719;SDS011;3902;49.474;8.616;2023-06-14T03:03:00;5.80;;;4.23;;
7719;SDS011;3902;49.474;8.616;2023-06-14T03:05:26;4.83;;;4.40;;
7719;SDS011;3902;49.474;8.616;2023-06-14T03:07:53;5.93;;;3.87;;
7719;SDS011;3902;49.474;8.616;2023-06-14T03:10:19;4.30;;;3.90;;
7719;SDS011;3902;49.474;8.616;2023-06-14T03:12:45;4.40;;;4.00;;
7719;SDS011;3902;49.474;8.616;2023-06-14T03:15:12;6.80;;;4.30;;
7719;SDS011;3902;49.474;8.616;2023-06-14T03:17:38;5.10;;;4.60;;
7719;SDS011;3902;49.474;8.616;2023-06-14T03:20:04;4.60;;;4.20;;
7719;SDS011;3902;49.474;8.616;2023-06-14T03:22:30;5.53;;;4.80;;
7719;SDS011;3902;49.474;8.616;2023-06-14T03:24:59;4.73;;;4.17;;
7719;SDS011;3902;49.474;8.616;2023-06-14T03:27:25;5.17;;;4.53;;
7719;SDS011;3902;49.474;8.616;2023-06-14T03:29:53;4.73;;;4.23;;
7719;SDS011;3902;49.474;8.616;2023-06-14T03:32:19;4.73;;;3.90;;
7719;SDS011;3902;49.474;8.616;2023-06-14T03:34:44;4.70;;;4.20;;
7719;SDS011;3902;49.474;8.616;2023-06-14T03:37:10;4.90;;;4.40;;
7719;SDS011;3902;49.474;8.616;2023-06-14T03:39:35;5.50;;;5.00;;
7719;SDS011;3902;49.474;8.616;2023-06-14T03:42:01;5.00;;;4.50;;
7719;SDS011;3902;49.474;8.616;2023-06-14T03:44:27;4.10;;;3.77;;
7719;SDS011;3902;49.474;8.616;2023-06-14T03:46:53;5.00;;;4.10;;
7719;SDS011;3902;49.474;8.616;2023-06-14T03:49:18;5.80;;;4.40;;
7719;SDS011;3902;49.474;8.616;2023-06-14T03:51:44;6.73;;;4.80;;
7719;SDS011;3902;49.474;8.616;2023-06-14T03:54:10;4.73;;;4.33;;
7719;SDS011;3902;49.474;8.616;2023-06-14T03:56:35;5.20;;;4.80;;
7719;SDS011;3902;49.474;8.616;2023-06-14T03:59:01;4.40;;;4.00;;
7719;SDS011;3902;49.474;8.616;2023-06-14T04:01:27;4.17;;;3.77;;
7719;SDS011;3902;49.474;8.616;2023-06-14T04:03:55;5.23;;;3.90;;
7719;SDS011;3902;49.474;8.616;2023-06-14T04:06:21;4.87;;;4.47;;
7719;SDS011;3902;49.474;8.616;2023-06-14T04:08:49;4.50;;;4.20;;
7719;SDS011;3902;49.474;8.616;2023-06-14T04:11:15;5.53;;;4.03;;
7719;SDS011;3902;49.474;8.616;2023-06-14T04:13:41;4.73;;;4.27;;
7719;SDS011;3902;49.474;8.616;2023-06-14T04:16:06;5.20;;;4.70;;
7719;SDS011;3902;49.474;8.616;2023-06-14T04:18:32;4.47;;;4.00;;
7719;SDS011;3902;49.474;8.616;2023-06-14T04:20:57;5.13;;;4.63;;
7719;SDS011;3902;49.474;8.616;2023-06-14T04:23:24;5.73;;;4.40;;
7719;SDS011;3902;49.474;8.616;2023-06-14T04:25:49;4.97;;;4.43;;
7719;SDS011;3902;49.474;8.616;2023-06-14T04:28:15;4.93;;;4.53;;
7719;SDS011;3902;49.474;8.616;2023-06-14T04:30:42;4.70;;;4.20;;
7719;SDS011;3902;49.474;8.616;2023-06-14T04:33:08;4.97;;;4.47;;
7719;SDS011;3902;49.474;8.616;2023-06-14T04:35:35;4.27;;;3.87;;
7719;SDS011;3902;49.474;8.616;2023-06-14T04:38:02;5.53;;;4.70;;
7719;SDS011;3902;49.474;8.616;2023-06-14T04:40:30;4.40;;;4.00;;
7719;SDS011;3902;49.474;8.616;2023-06-14T04:42:55;5.10;;;4.60;;
7719;SDS011;3902;49.474;8.616;2023-06-14T04:45:22;4.43;;;4.03;;
7719;SDS011;3902;49.474;8.616;2023-06-14T04:47:48;6.37;;;4.40;;
7719;SDS011;3902;49.474;8.616;2023-06-14T04:50:16;5.67;;;4.00;;
7719;SDS011;3902;49.474;8.616;2023-06-14T04:52:42;4.80;;;4.40;;
7719;SDS011;3902;49.474;8.616;2023-06-14T04:55:08;6.10;;;4.47;;
7719;SDS011;3902;49.474;8.616;2023-06-14T04:57:33;4.30;;;3.90;;
7719;SDS011;3902;49.474;8.616;2023-06-14T05:00:00;4.60;;;3.90;;
7719;SDS011;3902;49.474;8.616;2023-06-14T05:02:26;5.00;;;4.53;;
7719;SDS011;3902;49.474;8.616;2023-06-14T05:04:55;4.60;;;4.20;;
7719;SDS011;3902;49.474;8.616;2023-06-14T05:07:21;5.30;;;4.40;;
7719;SDS011;3902;49.474;8.616;2023-06-14T05:09:48;5.03;;;4.50;;
7719;SDS011;3902;49.474;8.616;2023-06-14T05:12:14;5.80;;;4.40;;
7719;SDS011;3902;49.474;8.616;2023-06-14T05:14:43;5.00;;;4.53;;
7719;SDS011;3902;49.474;8.616;2023-06-14T05:17:10;4.20;;;3.80;;
7719;SDS011;3902;49.474;8.616;2023-06-14T05:19:35;4.20;;;3.70;;
7719;SDS011;3902;49.474;8.616;2023-06-14T05:22:01;4.17;;;3.80;;
7719;SDS011;3902;49.474;8.616;2023-06-14T05:24:27;4.70;;;3.77;;
7719;SDS011;3902;49.474;8.616;2023-06-14T05:26:55;4.50;;;4.10;;
7719;SDS011;3902;49.474;8.616;2023-06-14T05:29:21;4.30;;;3.90;;
7719;SDS011;3902;49.474;8.616;2023-06-14T05:31:46;4.50;;;4.10;;
7719;SDS011;3902;49.474;8.616;2023-06-14T05:34:12;5.10;;;4.10;;
7719;SDS011;3902;49.474;8.616;2023-06-14T05:36:37;4.80;;;4.40;;
7719;SDS011;3902;49.474;8.616;2023-06-14T05:39:03;4.23;;;3.87;;
7719;SDS011;3902;49.474;8.616;2023-06-14T05:41:31;4.10;;;3.70;;
7719;SDS011;3902;49.474;8.616;2023-06-14T05:43:57;5.03;;;3.87;;
7719;SDS011;3902;49.474;8.616;2023-06-14T05:46:23;4.00;;;3.60;;
7719;SDS011;3902;49.474;8.616;2023-06-14T05:48:53;4.43;;;4.03;;
7719;SDS011;3902;49.474;8.616;2023-06-14T05:51:20;3.97;;;3.67;;
7719;SDS011;3902;49.474;8.616;2023-06-14T05:53:46;7.67;;;4.50;;
7719;SDS011;3902;49.474;8.616;2023-06-14T05:56:12;5.37;;;4.00;;
7719;SDS011;3902;49.474;8.616;2023-06-14T05:58:38;4.83;;;4.43;;
7719;SDS011;3902;49.474;8.616;2023-06-14T06:01:04;5.13;;;4.60;;
7719;SDS011;3902;49.474;8.616;2023-06-14T06:03:29;4.33;;;3.93;;
7719;SDS011;3902;49.474;8.616;2023-06-14T06:05:55;4.10;;;3.70;;
7719;SDS011;3902;49.474;8.616;2023-06-14T06:08:20;6.43;;;4.00;;
7719;SDS011;3902;49.474;8.616;2023-06-14T06:10:46;5.47;;;3.73;;
7719;SDS011;3902;49.474;8.616;2023-06-14T06:13:12;4.13;;;3.73;;
7719;SDS011;3902;49.474;8.616;2023-06-14T06:15:37;3.97;;;3.50;;
7719;SDS011;3902;49.474;8.616;2023-06-14T06:18:03;4.10;;;3.70;;
7719;SDS011;3902;49.474;8.616;2023-06-14T06:20:29;4.50;;;3.60;;
7719;SDS011;3902;49.474;8.616;2023-06-14T06:22:56;5.03;;;3.60;;
7719;SDS011;3902;49.474;8.616;2023-06-14T06:25:23;5.03;;;4.53;;
7719;SDS011;3902;49.474;8.616;2023-06-14T06:27:51;4.30;;;3.90;;
7719;SDS011;3902;49.474;8.616;2023-06-14T06:30:17;4.30;;;3.90;;
7719;SDS011;3902;49.474;8.616;2023-06-14T06:32:43;4.70;;;4.23;;
7719;SDS011;3902;49.474;8.616;2023-06-14T06:35:08;4.27;;;3.90;;
7719;SDS011;3902;49.474;8.616;2023-06-14T06:37:35;4.50;;;3.93;;
7719;SDS011;3902;49.474;8.616;2023-06-14T06:40:01;5.20;;;3.77;;
7719;SDS011;3902;49.474;8.616;2023-06-14T06:42:29;5.03;;;3.70;;
7719;SDS011;3902;49.474;8.616;2023-06-14T06:44:54;6.80;;;3.60;;
7719;SDS011;3902;49.474;8.616;2023-06-14T06:47:20;4.20;;;3.90;;
7719;SDS011;3902;49.474;8.616;2023-06-14T06:49:45;4.03;;;3.70;;
7719;SDS011;3902;49.474;8.616;2023-06-14T06:52:11;4.40;;;3.53;;
7719;SDS011;3902;49.474;8.616;2023-06-14T06:54:36;6.33;;;3.63;;
7719;SDS011;3902;49.474;8.616;2023-06-14T06:57:02;4.20;;;3.90;;
7719;SDS011;3902;49.474;8.616;2023-06-14T06:59:28;5.33;;;3.47;;
7719;SDS011;3902;49.474;8.616;2023-06-14T07:01:53;4.73;;;4.23;;
7719;SDS011;3902;49.474;8.616;2023-06-14T07:04:19;8.63;;;3.43;;
7719;SDS011;3902;49.474;8.616;2023-06-14T07:06:45;4.07;;;3.60;;
7719;SDS011;3902;49.474;8.616;2023-06-14T07:09:11;4.07;;;3.77;;
7719;SDS011;3902;49.474;8.616;2023-06-14T07:11:39;3.90;;;3.37;;
7719;SDS011;3902;49.474;8.616;2023-06-14T07:14:05;4.13;;;3.57;;
7719;SDS011;3902;49.474;8.616;2023-06-14T07:16:30;4.60;;;3.67;;
7719;SDS011;3902;49.474;8.616;2023-06-14T07:18:56;5.13;;;3.70;;
7719;SDS011;3902;49.474;8.616;2023-06-14T07:21:22;4.00;;;3.60;;
7719;SDS011;3902;49.474;8.616;2023-06-14T07:23:47;3.23;;;2.90;;
7719;SDS011;3902;49.474;8.616;2023-06-14T07:26:13;4.53;;;3.70;;
7719;SDS011;3902;49.474;8.616;2023-06-14T07:28:38;3.73;;;3.40;;
7719;SDS011;3902;49.474;8.616;2023-06-14T07:31:04;4.43;;;4.03;;
7719;SDS011;3902;49.474;8.616;2023-06-14T07:33:30;4.93;;;3.43;;
7719;SDS011;3902;49.474;8.616;2023-06-14T07:35:55;5.10;;;3.37;;
7719;SDS011;3902;49.474;8.616;2023-06-14T07:38:21;4.07;;;3.50;;
7719;SDS011;3902;49.474;8.616;2023-06-14T07:40:46;4.40;;;3.93;;
7719;SDS011;3902;49.474;8.616;2023-06-14T07:43:12;3.60;;;3.30;;
7719;SDS011;3902;49.474;8.616;2023-06-14T07:45:37;4.40;;;4.00;;
7719;SDS011;3902;49.474;8.616;2023-06-14T07:48:03;4.50;;;3.50;;
7719;SDS011;3902;49.474;8.616;2023-06-14T07:50:29;4.40;;;4.00;;
7719;SDS011;3902;49.474;8.616;2023-06-14T07:52:55;3.73;;;3.43;;
7719;SDS011;3902;49.474;8.616;2023-06-14T07:55:20;4.20;;;3.80;;
7719;SDS011;3902;49.474;8.616;2023-06-14T07:57:46;5.77;;;3.43;;
7719;SDS011;3902;49.474;8.616;2023-06-14T08:00:12;5.93;;;3.67;;
7719;SDS011;3902;49.474;8.616;2023-06-14T08:02:40;6.23;;;3.50;;
7719;SDS011;3902;49.474;8.616;2023-06-14T08:05:07;3.50;;;3.20;;
7719;SDS011;3902;49.474;8.616;2023-06-14T08:07:34;4.70;;;3.40;;
7719;SDS011;3902;49.474;8.616;2023-06-14T08:10:00;4.97;;;3.13;;
7719;SDS011;3902;49.474;8.616;2023-06-14T08:12:25;4.50;;;3.77;;
7719;SDS011;3902;49.474;8.616;2023-06-14T08:14:51;5.30;;;3.70;;
7719;SDS011;3902;49.474;8.616;2023-06-14T08:17:16;5.33;;;3.70;;
7719;SDS011;3902;49.474;8.616;2023-06-14T08:19:42;4.60;;;3.50;;
7719;SDS011;3902;49.474;8.616;2023-06-14T08:22:07;3.57;;;3.27;;
7719;SDS011;3902;49.474;8.616;2023-06-14T08:24:37;3.20;;;2.90;;
7719;SDS011;3902;49.474;8.616;2023-06-14T08:27:02;3.70;;;3.40;;
7719;SDS011;3902;49.474;8.616;2023-06-14T08:29:28;3.90;;;3.60;;
7719;SDS011;3902;49.474;8.616;2023-06-14T08:31:57;3.43;;;3.13;;
7719;SDS011;3902;49.474;8.616;2023-06-14T08:34:22;5.23;;;3.50;;
7719;SDS011;3902;49.474;8.616;2023-06-14T08:36:49;5.23;;;3.70;;
7719;SDS011;3902;49.474;8.616;2023-06-14T08:39:15;3.60;;;3.10;;
7719;SDS011;3902;49.474;8.616;2023-06-14T08:41:41;3.20;;;2.90;;
7719;SDS011;3902;49.474;8.616;2023-06-14T08:44:13;4.30;;;3.90;;
7719;SDS011;3902;49.474;8.616;2023-06-14T08:46:40;3.97;;;3.60;;
7719;SDS011;3902;49.474;8.616;2023-06-14T08:49:07;3.50;;;3.20;;
7719;SDS011;3902;49.474;8.616;2023-06-14T08:51:36;3.30;;;3.00;;
7719;SDS011;3902;49.474;8.616;2023-06-14T08:54:02;4.77;;;3.63;;
7719;SDS011;3902;49.474;8.616;2023-06-14T08:56:29;4.00;;;3.40;;
7719;SDS011;3902;49.474;8.616;2023-06-14T08:58:56;4.30;;;3.53;;
7719;SDS011;3902;49.474;8.616;2023-06-14T09:01:26;4.07;;;3.20;;
7719;SDS011;3902;49.474;8.616;2023-06-14T09:03:52;3.77;;;3.20;;
7719;SDS011;3902;49.474;8.616;2023-06-14T09:06:19;3.90;;;2.90;;
7719;SDS011;3902;49.474;8.616;2023-06-14T09:08:48;3.00;;;2.77;;
7719;SDS011;3902;49.474;8.616;2023-06-14T09:11:14;4.77;;;3.10;;
7719;SDS011;3902;49.474;8.616;2023-06-14T09:13:41;3.67;;;2.60;;
7719;SDS011;3902;49.474;8.616;2023-06-14T09:16:08;4.57;;;2.60;;
7719;SDS011;3902;49.474;8.616;2023-06-14T09:18:37;3.70;;;2.80;;
7719;SDS011;3902;49.474;8.616;2023-06-14T09:21:07;3.40;;;2.93;;
7719;SDS011;3902;49.474;8.616;2023-06-14T09:23:36;3.30;;;3.00;;
7719;SDS011;3902;49.474;8.616;2023-06-14T09:26:06;3.10;;;2.80;;
7719;SDS011;3902;49.474;8.616;2023-06-14T09:28:36;3.13;;;2.83;;
7719;SDS011;3902;49.474;8.616;2023-06-14T09:31:06;3.40;;;3.10;;
7719;SDS011;3902;49.474;8.616;2023-06-14T09:33:33;4.23;;;3.27;;
7719;SDS011;3902;49.474;8.616;2023-06-14T09:35:59;3.30;;;2.83;;
7719;SDS011;3902;49.474;8.616;2023-06-14T09:38:25;4.30;;;3.00;;
7719;SDS011;3902;49.474;8.616;2023-06-14T09:40:51;3.10;;;2.90;;
7719;SDS011;3902;49.474;8.616;2023-06-14T09:43:17;4.00;;;2.80;;
7719;SDS011;3902;49.474;8.616;2023-06-14T09:45:43;3.50;;;3.10;;
7719;SDS011;3902;49.474;8.616;2023-06-14T09:48:10;6.73;;;3.70;;
7719;SDS011;3902;49.474;8.616;2023-06-14T09:50:37;3.53;;;3.10;;
7719;SDS011;3902;49.474;8.616;2023-06-14T09:53:07;3.73;;;2.53;;
7719;SDS011;3902;49.474;8.616;2023-06-14T09:55:36;3.80;;;2.80;;
7719;SDS011;3902;49.474;8.616;2023-06-14T09:58:04;3.80;;;3.30;;
7719;SDS011;3902;49.474;8.616;2023-06-14T10:00:31;3.53;;;3.07;;
7719;SDS011;3902;49.474;8.616;2023-06-14T10:03:00;3.43;;;3.13;;
7719;SDS011;3902;49.474;8.616;2023-06-14T10:05:34;3.20;;;2.90;;
7719;SDS011;3902;49.474;8.616;2023-06-14T10:08:04;3.40;;;3.10;;
7719;SDS011;3902;49.474;8.616;2023-06-14T10:10:34;4.57;;;3.00;;
7719;SDS011;3902;49.474;8.616;2023-06-14T10:12:59;4.70;;;2.97;;
7719;SDS011;3902;49.474;8.616;2023-06-14T10:15:32;3.40;;;3.00;;
7719;SDS011;3902;49.474;8.616;2023-06-14T10:23:41;3.73;;;2.93;;
7719;SDS011;3902;49.474;8.616;2023-06-14T10:26:13;3.63;;;3.30;;
7719;SDS011;3902;49.474;8.616;2023-06-14T10:28:47;3.70;;;3.40;;
7719;SDS011;3902;49.474;8.616;2023-06-14T10:34:07;3.03;;;2.80;;
7719;SDS011;3902;49.474;8.616;2023-06-14T10:36:32;3.07;;;2.87;;
7719;SDS011;3902;49.474;8.616;2023-06-14T10:41:31;3.27;;;2.97;;
7719;SDS011;3902;49.474;8.616;2023-06-14T10:46:37;3.53;;;3.23;;
7719;SDS011;3902;49.474;8.616;2023-06-14T10:49:04;3.73;;;3.40;;
7719;SDS011;3902;49.474;8.616;2023-06-14T10:51:30;3.70;;;3.10;;
7719;SDS011;3902;49.474;8.616;2023-06-14T10:54:11;4.23;;;3.27;;
7719;SDS011;3902;49.474;8.616;2023-06-14T10:56:46;3.30;;;3.00;;
7719;SDS011;3902;49.474;8.616;2023-06-14T10:59:13;3.27;;;2.97;;
7719;SDS011;3902;49.474;8.616;2023-06-14T11:10:23;3.57;;;3.27;;
7719;SDS011;3902;49.474;8.616;2023-06-14T11:13:01;3.97;;;3.10;;
7719;SDS011;3902;49.474;8.616;2023-06-14T11:15:31;7.40;;;3.17;;
7719;SDS011;3902;49.474;8.616;2023-06-14T11:17:57;3.57;;;3.27;;
7719;SDS011;3902;49.474;8.616;2023-06-14T11:20:25;3.20;;;3.00;;
7719;SDS011;3902;49.474;8.616;2023-06-14T11:22:52;3.10;;;2.73;;
7719;SDS011;3902;49.474;8.616;2023-06-14T11:25:19;3.10;;;2.80;;
7719;SDS011;3902;49.474;8.616;2023-06-14T11:27:45;3.50;;;3.20;;
7719;SDS011;3902;49.474;8.616;2023-06-14T11:30:11;2.93;;;2.73;;
7719;SDS011;3902;49.474;8.616;2023-06-14T11:32:38;3.57;;;3.27;;
7719;SDS011;3902;49.474;8.616;2023-06-14T11:35:04;3.37;;;3.07;;
7719;SDS011;3902;49.474;8.616;2023-06-14T11:37:31;3.07;;;2.77;;
7719;SDS011;3902;49.474;8.616;2023-06-14T11:40:00;4.17;;;3.20;;
7719;SDS011;3902;49.474;8.616;2023-06-14T11:42:28;4.20;;;3.77;;
7719;SDS011;3902;49.474;8.616;2023-06-14T11:44:54;3.93;;;3.33;;
7719;SDS011;3902;49.474;8.616;2023-06-14T11:47:20;4.40;;;3.30;;
7719;SDS011;3902;49.474;8.616;2023-06-14T11:49:47;3.70;;;3.37;;
7719;SDS011;3902;49.474;8.616;2023-06-14T11:52:13;3.50;;;3.20;;
7719;SDS011;3902;49.474;8.616;2023-06-14T11:54:39;3.60;;;3.30;;
7719;SDS011;3902;49.474;8.616;2023-06-14T11:57:06;2.90;;;2.70;;
7719;SDS011;3902;49.474;8.616;2023-06-14T11:59:32;3.23;;;2.93;;
7719;SDS011;3902;49.474;8.616;2023-06-14T12:02:04;2.97;;;2.53;;
7719;SDS011;3902;49.474;8.616;2023-06-14T12:04:32;3.23;;;2.93;;
7719;SDS011;3902;49.474;8.616;2023-06-14T12:07:08;3.10;;;2.90;;
7719;SDS011;3902;49.474;8.616;2023-06-14T12:09:36;3.40;;;3.10;;
7719;SDS011;3902;49.474;8.616;2023-06-14T12:12:01;4.90;;;3.50;;
7719;SDS011;3902;49.474;8.616;2023-06-14T12:14:31;3.23;;;2.93;;
7719;SDS011;3902;49.474;8.616;2023-06-14T12:17:03;3.57;;;3.27;;
7719;SDS011;3902;49.474;8.616;2023-06-14T12:19:33;3.77;;;3.47;;
7719;SDS011;3902;49.474;8.616;2023-06-14T12:22:11;3.70;;;3.40;;
7719;SDS011;3902;49.474;8.616;2023-06-14T12:24:37;3.23;;;3.03;;
7719;SDS011;3902;49.474;8.616;2023-06-14T12:27:04;3.23;;;2.93;;
7719;SDS011;3902;49.474;8.616;2023-06-14T12:29:30;3.50;;;3.20;;
7719;SDS011;3902;49.474;8.616;2023-06-14T12:31:56;3.27;;;2.90;;
7719;SDS011;3902;49.474;8.616;2023-06-14T12:34:23;3.30;;;3.00;;
7719;SDS011;3902;49.474;8.616;2023-06-14T12:36:52;3.53;;;2.67;;
7719;SDS011;3902;49.474;8.616;2023-06-14T12:39:18;3.50;;;3.20;;
7719;SDS011;3902;49.474;8.616;2023-06-14T12:41:44;3.37;;;3.07;;
7719;SDS011;3902;49.474;8.616;2023-06-14T12:44:10;3.03;;;2.73;;
7719;SDS011;3902;49.474;8.616;2023-06-14T12:46:37;3.07;;;2.70;;
7719;SDS011;3902;49.474;8.616;2023-06-14T12:49:04;3.20;;;2.93;;
7719;SDS011;3902;49.474;8.616;2023-06-14T12:51:31;3.10;;;2.87;;
7719;SDS011;3902;49.474;8.616;2023-06-14T12:53:57;3.40;;;2.90;;
7719;SDS011;3902;49.474;8.616;2023-06-14T12:56:22;3.10;;;2.90;;
7719;SDS011;3902;49.474;8.616;2023-06-14T12:58:48;4.90;;;2.80;;
7719;SDS011;3902;49.474;8.616;2023-06-14T13:01:14;3.10;;;2.90;;
7719;SDS011;3902;49.474;8.616;2023-06-14T13:03:39;3.97;;;3.67;;
7719;SDS011;3902;49.474;8.616;2023-06-14T13:06:05;3.17;;;2.97;;
7719;SDS011;3902;49.474;8.616;2023-06-14T13:08:31;3.40;;;3.10;;
7719;SDS011;3902;49.474;8.616;2023-06-14T13:10:56;4.40;;;2.90;;
7719;SDS011;3902;49.474;8.616;2023-06-14T13:13:22;3.90;;;3.00;;
7719;SDS011;3902;49.474;8.616;2023-06-14T13:15:48;4.10;;;3.53;;
7719;SDS011;3902;49.474;8.616;2023-06-14T13:18:14;3.13;;;2.93;;
7719;SDS011;3902;49.474;8.616;2023-06-14T13:20:40;3.37;;;3.10;;
7719;SDS011;3902;49.474;8.616;2023-06-14T13:23:07;3.17;;;2.97;;
7719;SDS011;3902;49.474;8.616;2023-06-14T13:25:33;3.73;;;3.03;;
7719;SDS011;3902;49.474;8.616;2023-06-14T13:27:59;3.63;;;2.87;;
7719;SDS011;3902;49.474;8.616;2023-06-14T13:30:25;3.70;;;3.37;;
7719;SDS011;3902;49.474;8.616;2023-06-14T13:32:51;2.90;;;2.67;;
7719;SDS011;3902;49.474;8.616;2023-06-14T13:35:17;3.70;;;3.40;;
7719;SDS011;3902;49.474;8.616;2023-06-14T13:37:44;4.57;;;3.20;;
7719;SDS011;3902;49.474;8.616;2023-06-14T13:40:09;3.70;;;3.40;;
7719;SDS011;3902;49.474;8.616;2023-06-14T13:42:35;3.20;;;3.00;;
7719;SDS011;3902;49.474;8.616;2023-06-14T13:45:02;3.47;;;3.17;;
7719;SDS011;3902;49.474;8.616;2023-06-14T13:47:28;4.60;;;3.07;;
7719;SDS011;3902;49.474;8.616;2023-06-14T13:49:54;3.60;;;3.30;;
7719;SDS011;3902;49.474;8.616;2023-06-14T13:52:20;3.37;;;3.07;;
7719;SDS011;3902;49.474;8.616;2023-06-14T13:54:46;3.17;;;2.87;;
7719;SDS011;3902;49.474;8.616;2023-06-14T13:57:11;3.53;;;3.00;;
7719;SDS011;3902;49.474;8.616;2023-06-14T13:59:40;4.23;;;3.63;;
7719;SDS011;3902;49.474;8.616;2023-06-14T14:02:06;4.60;;;3.47;;
7719;SDS011;3902;49.474;8.616;2023-06-14T14:04:33;2.97;;;2.77;;
7719;SDS011;3902;49.474;8.616;2023-06-14T14:07:00;4.03;;;3.10;;
7719;SDS011;3902;49.474;8.616;2023-06-14T14:09:26;3.60;;;3.30;;
7719;SDS011;3902;49.474;8.616;2023-06-14T14:11:51;3.50;;;3.20;;
7719;SDS011;3902;49.474;8.616;2023-06-14T14:14:17;3.77;;;3.37;;
7719;SDS011;3902;49.474;8.616;2023-06-14T14:16:42;4.03;;;3.03;;
7719;SDS011;3902;49.474;8.616;2023-06-14T14:19:08;3.60;;;3.30;;
7719;SDS011;3902;49.474;8.616;2023-06-14T14:21:33;3.40;;;3.20;;
7719;SDS011;3902;49.474;8.616;2023-06-14T14:24:00;3.50;;;3.20;;
7719;SDS011;3902;49.474;8.616;2023-06-14T14:26:26;4.07;;;3.67;;
7719;SDS011;3902;49.474;8.616;2023-06-14T14:28:51;4.37;;;3.97;;
7719;SDS011;3902;49.474;8.616;2023-06-14T14:31:17;3.80;;;3.40;;
7719;SDS011;3902;49.474;8.616;2023-06-14T14:33:43;3.57;;;3.27;;
7719;SDS011;3902;49.474;8.616;2023-06-14T14:36:08;4.17;;;3.50;;
7719;SDS011;3902;49.474;8.616;2023-06-14T14:38:34;4.70;;;3.67;;
7719;SDS011;3902;49.474;8.616;2023-06-14T14:41:00;4.00;;;3.70;;
7719;SDS011;3902;49.474;8.616;2023-06-14T14:43:25;3.30;;;3.07;;
7719;SDS011;3902;49.474;8.616;2023-06-14T14:45:51;3.60;;;3.27;;
7719;SDS011;3902;49.474;8.616;2023-06-14T14:48:17;4.90;;;3.40;;
7719;SDS011;3902;49.474;8.616;2023-06-14T14:50:43;3.50;;;3.20;;
7719;SDS011;3902;49.474;8.616;2023-06-14T14:53:08;3.37;;;3.17;;
7719;SDS011;3902;49.474;8.616;2023-06-14T14:55:34;3.47;;;3.17;;
7719;SDS011;3902;49.474;8.616;2023-06-14T14:58:02;4.13;;;3.43;;
7719;SDS011;3902;49.474;8.616;2023-06-14T15:00:28;3.50;;;3.20;;
7719;SDS011;3902;49.474;8.616;2023-06-14T15:02:54;3.43;;;2.70;;
7719;SDS011;3902;49.474;8.616;2023-06-14T15:05:19;4.03;;;3.60;;
7719;SDS011;3902;49.474;8.616;2023-06-14T15:07:45;3.60;;;3.30;;
7719;SDS011;3902;49.474;8.616;2023-06-14T15:10:10;3.70;;;3.40;;
7719;SDS011;3902;49.474;8.616;2023-06-14T15:12:36;3.70;;;3.30;;
7719;SDS011;3902;49.474;8.616;2023-06-14T15:15:02;3.10;;;2.87;;
7719;SDS011;3902;49.474;8.616;2023-06-14T15:17:28;3.40;;;3.10;;
7719;SDS011;3902;49.474;8.616;2023-06-14T15:19:54;3.50;;;3.20;;
7719;SDS011;3902;49.474;8.616;2023-06-14T15:22:19;3.33;;;3.13;;
7719;SDS011;3902;49.474;8.616;2023-06-14T15:24:45;3.77;;;3.43;;
7719;SDS011;3902;49.474;8.616;2023-06-14T15:27:11;3.23;;;2.87;;
7719;SDS011;3902;49.474;8.616;2023-06-14T15:29:37;3.33;;;3.03;;
7719;SDS011;3902;49.474;8.616;2023-06-14T15:32:04;3.57;;;3.27;;
7719;SDS011;3902;49.474;8.616;2023-06-14T15:34:30;3.97;;;3.40;;
7719;SDS011;3902;49.474;8.616;2023-06-14T15:36:56;3.53;;;3.20;;
7719;SDS011;3902;49.474;8.616;2023-06-14T15:39:22;3.43;;;3.13;;
7719;SDS011;3902;49.474;8.616;2023-06-14T15:41:48;3.50;;;3.20;;